Time;durP1;ratioP1;P1;durP2;ratioP2;P2;SDS_P1;SDS_P2;PMS_P1;PMS_P2;Temp;Humidity;BMP_temperature;BMP_pressure;BME280_temperature;BME280_humidity;BME280_pressure;Samples;Min_cycle;Max_cycle;Signal;HPM_P1;HPM_P2
2022/11/06 00:00:17;;;;;;;0.28;0.20;;;8.50;80.10;;;;;;4958196;28;20032;-70
2022/11/06 00:02:52;;;;;;;0.40;0.10;;;8.60;81.00;;;;;;4958288;29;20106;-70
2022/11/06 00:08:30;;;;;;;0.00;0.00;;;8.70;80.60;;;;;;4958481;29;20351;-70
2022/11/06 00:11:56;;;;;;;0.17;0.17;;;8.70;80.80;;;;;;4956938;28;20436;-70
2022/11/06 00:15:23;;;;;;;0.00;0.00;;;8.60;81.70;;;;;;4958393;29;20031;-70
2022/11/06 00:18:47;;;;;;;0.10;0.10;;;8.50;82.50;;;;;;4958265;29;20062;-70
2022/11/06 00:22:15;;;;;;;0.00;0.00;;;8.50;80.50;;;;;;4958319;28;20045;-70
2022/11/06 00:25:39;;;;;;;0.00;0.00;;;8.50;81.10;;;;;;4958308;29;20038;-70
2022/11/06 00:31:40;;;;;;;0.03;0.03;;;8.40;81.70;;;;;;4958689;29;20327;-70
2022/11/06 00:34:15;;;;;;;0.00;0.00;;;8.30;81.50;;;;;;4961143;28;20331;-70
2022/11/06 00:36:50;;;;;;;0.10;0.10;;;8.40;82.20;;;;;;4961976;29;20020;-70
2022/11/06 00:39:25;;;;;;;0.00;0.00;;;8.30;83.10;;;;;;4961898;28;20054;-70
2022/11/06 00:41:50;;;;;;;0.00;0.00;;;8.20;83.90;;;;;;4961823;29;20382;-70
2022/11/06 00:44:25;;;;;;;0.10;0.10;;;8.10;84.10;;;;;;4961870;29;20066;-70
2022/11/06 00:47:00;;;;;;;0.10;0.10;;;8.00;84.30;;;;;;4961782;29;20059;-70
2022/11/06 00:52:48;;;;;;;0.05;0.05;;;8.00;85.30;;;;;;4962000;29;20026;-70
2022/11/06 00:55:32;;;;;;;0.93;0.50;;;7.90;85.80;;;;;;4961678;29;20027;-70
2022/11/06 00:58:06;;;;;;;0.03;0.03;;;8.00;85.60;;;;;;4961710;29;20082;-70
2022/11/06 01:00:32;;;;;;;0.10;0.10;;;8.10;85.60;;;;;;4961523;28;20038;-70
2022/11/06 01:03:16;;;;;;;0.00;0.00;;;8.10;85.50;;;;;;4961870;29;20102;-70
2022/11/06 01:05:51;;;;;;;0.00;0.00;;;8.10;83.40;;;;;;4961583;29;20108;-70
2022/11/06 01:08:26;;;;;;;0.00;0.00;;;8.20;83.90;;;;;;4944488;29;20094;-70
2022/11/06 01:11:10;;;;;;;0.10;0.10;;;8.20;83.20;;;;;;4961162;28;20344;-70
2022/11/06 01:13:47;;;;;;;0.10;0.08;;;8.10;84.70;;;;;;4961301;29;20388;-70
2022/11/06 01:16:23;;;;;;;0.00;0.00;;;8.00;84.70;;;;;;4961287;29;20039;-70
2022/11/06 01:18:59;;;;;;;0.10;0.10;;;7.90;84.80;;;;;;4961302;29;20035;-70
2022/11/06 01:21:29;;;;;;;;;;;7.90;86.40;;;;;;4961709;29;20178;-70
2022/11/06 01:24:11;;;;;;;0.00;0.00;;;7.80;85.90;;;;;;4944071;29;20184;-70
2022/11/06 01:26:57;;;;;;;0.08;0.08;;;7.90;85.00;;;;;;4961243;29;20316;-70
2022/11/06 01:32:45;;;;;;;0.20;0.10;;;8.10;86.40;;;;;;4961364;29;20033;-70
2022/11/06 01:35:20;;;;;;;0.00;0.00;;;8.00;85.60;;;;;;4960980;29;20106;-70
2022/11/06 01:37:55;;;;;;;0.08;0.08;;;7.90;85.40;;;;;;4943905;29;20420;-70
2022/11/06 01:44:40;;;;;;;0.00;0.00;;;7.90;86.60;;;;;;4960514;28;20101;-70
2022/11/06 01:50:37;;;;;;;0.00;0.00;;;7.80;85.10;;;;;;4883268;29;20357;-70
2022/11/06 01:53:12;;;;;;;3.85;0.28;;;7.80;84.90;;;;;;4883124;29;20029;-70
2022/11/06 01:55:52;;;;;;;0.00;0.00;;;7.70;86.60;;;;;;4883049;29;20037;-70
2022/11/06 01:58:31;;;;;;;0.10;0.10;;;7.60;85.50;;;;;;4882930;29;20080;-70
2022/11/06 02:00:57;;;;;;;0.05;0.05;;;7.60;85.70;;;;;;4867277;29;20041;-70
2022/11/06 02:03:32;;;;;;;0.00;0.00;;;7.60;86.10;;;;;;4882943;29;20097;-70
2022/11/06 02:06:08;;;;;;;0.00;0.00;;;7.70;86.90;;;;;;4867327;29;20135;-70
2022/11/06 02:08:42;;;;;;;0.00;0.00;;;7.70;86.40;;;;;;4882791;29;20029;-70
2022/11/06 02:25:54;;;;;;;0.00;0.00;;;7.90;85.60;;;;;;4940890;29;20047;-70
2022/11/06 02:28:38;;;;;;;0.00;0.00;;;8.10;84.50;;;;;;4940740;29;20384;-70
2022/11/06 02:31:11;;;;;;;0.05;0.03;;;8.10;86.00;;;;;;4923803;29;20035;-70
2022/11/06 02:34:10;;;;;;;0.00;0.00;;;8.00;85.50;;;;;;4940718;29;20039;-70
2022/11/06 02:36:55;;;;;;;0.10;0.10;;;8.00;86.10;;;;;;4940638;29;20063;-70
2022/11/06 02:39:42;;;;;;;0.08;0.08;;;8.00;86.20;;;;;;4940561;29;20148;-70
2022/11/06 02:42:11;;;;;;;0.00;0.00;;;8.00;86.60;;;;;;4940510;29;20068;-70
2022/11/06 02:44:54;;;;;;;0.10;0.10;;;8.00;87.20;;;;;;4940572;29;20024;-70
2022/11/06 02:47:32;;;;;;;0.10;0.10;;;8.00;87.90;;;;;;4940328;29;20031;-70
2022/11/06 02:53:23;;;;;;;0.30;0.10;;;7.90;89.30;;;;;;4940685;29;20027;-70
2022/11/06 02:56:10;;;;;;;0.10;0.10;;;7.90;89.30;;;;;;4940077;29;20031;-70
2022/11/06 03:02:06;;;;;;;0.08;0.08;;;7.90;90.80;;;;;;4940630;29;20082;-70
2022/11/06 03:05:34;;;;;;;0.10;0.10;;;7.80;90.70;;;;;;4940151;29;20035;-70
2022/11/06 03:08:20;;;;;;;;;;;7.80;90.20;;;;;;4863586;29;20370;-70
2022/11/06 03:10:54;;;;;;;0.00;0.00;;;7.80;88.80;;;;;;4863108;29;19912;-70
2022/11/06 03:17:17;;;;;;;0.10;0.10;;;7.70;89.20;;;;;;4881657;29;20036;-70
2022/11/06 03:20:35;;;;;;;0.10;0.10;;;7.70;87.10;;;;;;4881499;29;20045;-70
2022/11/06 03:23:52;;;;;;;0.20;0.10;;;7.70;87.40;;;;;;4826345;29;20126;-70
2022/11/06 03:26:46;;;;;;;0.00;0.00;;;7.70;87.80;;;;;;4826105;29;20038;-70
2022/11/06 03:29:45;;;;;;;0.10;0.10;;;7.60;87.90;;;;;;4826102;29;20129;-70
2022/11/06 03:32:27;;;;;;;0.00;0.00;;;7.50;86.60;;;;;;4847241;29;20044;-70
2022/11/06 03:35:14;;;;;;;0.10;0.10;;;7.50;86.80;;;;;;4881307;29;20513;-70
2022/11/06 03:37:59;;;;;;;0.00;0.00;;;7.50;87.10;;;;;;4881311;29;20095;-70
2022/11/06 03:44:00;;;;;;;0.00;0.00;;;7.50;86.80;;;;;;4958774;29;20074;-70
2022/11/06 03:46:51;;;;;;;0.00;0.00;;;7.50;86.70;;;;;;4958598;29;20042;-70
2022/11/06 03:49:35;;;;;;;0.05;0.05;;;7.40;87.10;;;;;;4958866;28;20034;-70
2022/11/06 03:52:40;;;;;;;0.10;0.10;;;7.50;86.90;;;;;;4941691;29;20028;-70
2022/11/06 03:55:29;;;;;;;0.00;0.00;;;7.60;87.10;;;;;;4862418;29;20112;-70
2022/11/06 03:58:08;;;;;;;0.00;0.00;;;7.60;86.40;;;;;;4846961;29;20033;-70
2022/11/06 04:00:35;;;;;;;0.00;0.00;;;7.60;86.50;;;;;;4862337;29;20143;-70
2022/11/06 04:03:24;;;;;;;0.10;0.10;;;7.60;87.30;;;;;;4846910;29;20064;-70
2022/11/06 04:06:10;;;;;;;0.00;0.00;;;7.60;86.80;;;;;;4862239;29;20450;-70
2022/11/06 04:15:40;;;;;;;0.00;0.00;;;7.50;86.60;;;;;;4957980;28;20109;-70
2022/11/06 04:21:47;;;;;;;0.00;0.00;;;7.30;88.30;;;;;;4958663;29;20043;-70
2022/11/06 04:35:05;;;;;;;0.10;0.10;;;7.20;90.30;;;;;;4958410;29;20380;-70
2022/11/06 04:38:36;;;;;;;0.00;0.00;;;7.30;90.50;;;;;;4958275;29;20082;-70
2022/11/06 04:41:18;;;;;;;0.00;0.00;;;7.40;90.20;;;;;;4848077;29;20178;-70
2022/11/06 04:44:18;;;;;;;0.00;0.00;;;7.50;88.50;;;;;;4880630;29;20457;-70
2022/11/06 04:47:13;;;;;;;0.00;0.00;;;7.50;88.20;;;;;;4880604;29;20342;-70
2022/11/06 04:49:51;;;;;;;0.00;0.00;;;7.50;88.00;;;;;;4880397;29;20033;-70
2022/11/06 04:52:25;;;;;;;0.10;0.10;;;7.50;88.00;;;;;;4880429;29;20029;-70
2022/11/06 04:54:59;;;;;;;0.10;0.10;;;7.40;87.90;;;;;;4880448;29;20037;-70
2022/11/06 04:57:34;;;;;;;0.38;0.20;;;7.40;87.80;;;;;;4864896;29;20403;-70
2022/11/06 05:03:21;;;;;;;0.30;0.15;;;7.40;87.20;;;;;;4880719;29;20040;-70
2022/11/06 05:06:01;;;;;;;0.00;0.00;;;7.40;87.10;;;;;;4880444;29;20037;-70
2022/11/06 05:08:36;;;;;;;0.00;0.00;;;7.40;87.20;;;;;;4880293;29;20044;-70
2022/11/06 05:14:38;;;;;;;0.00;0.00;;;7.50;88.20;;;;;;4915170;29;20042;-70
2022/11/06 05:17:13;;;;;;;0.15;0.15;;;7.50;87.90;;;;;;4957786;29;20428;-70
2022/11/06 05:19:48;;;;;;;0.03;0.00;;;7.50;86.50;;;;;;4941651;29;20039;-70
2022/11/06 05:25:07;;;;;;;0.13;0.13;;;7.40;86.30;;;;;;4961271;29;20050;-70
2022/11/06 05:27:42;;;;;;;0.40;0.40;;;7.30;86.80;;;;;;4961191;29;20027;-70
2022/11/06 05:30:17;;;;;;;0.03;0.03;;;7.30;87.60;;;;;;4961021;28;20070;-70
2022/11/06 05:32:52;;;;;;;0.00;0.00;;;7.40;87.30;;;;;;4961134;29;20023;-70
2022/11/06 05:35:27;;;;;;;0.00;0.00;;;7.30;87.10;;;;;;4961073;29;20027;-70
2022/11/06 05:38:08;;;;;;;0.10;0.10;;;7.30;86.40;;;;;;4960965;29;20321;-70
2022/11/06 05:44:05;;;;;;;0.00;0.00;;;7.30;85.30;;;;;;4961200;29;20487;-70
2022/11/06 05:46:39;;;;;;;0.00;0.00;;;7.20;86.40;;;;;;4960747;29;20035;-70
2022/11/06 05:52:27;;;;;;;0.00;0.00;;;7.10;85.80;;;;;;4961068;29;20037;-70
2022/11/06 05:55:08;;;;;;;0.00;0.00;;;7.10;85.20;;;;;;4960698;29;20427;-70
2022/11/06 05:57:43;;;;;;;0.00;0.00;;;7.10;84.30;;;;;;4960511;29;20416;-70
2022/11/06 06:00:10;;;;;;;0.00;0.00;;;7.10;84.50;;;;;;4960938;28;20032;-70
2022/11/06 06:06:07;;;;;;;0.10;0.00;;;7.20;82.70;;;;;;4960735;29;20117;-70
2022/11/06 06:08:42;;;;;;;0.00;0.00;;;7.50;80.10;;;;;;4960465;29;20332;-70
2022/11/06 06:11:07;;;;;;;0.00;0.00;;;7.70;79.50;;;;;;4943237;29;20374;-70
2022/11/06 06:14:32;;;;;;;0.00;0.00;;;7.90;79.20;;;;;;4959885;29;20055;-70
2022/11/06 06:17:57;;;;;;;0.20;0.20;;;8.10;80.30;;;;;;4960220;29;20039;-69
2022/11/06 06:24:54;;;;;;;0.00;0.00;;;8.60;74.20;;;;;;4960348;29;20093;-69
2022/11/06 06:28:19;;;;;;;0.00;0.00;;;9.00;72.60;;;;;;4960066;29;20063;-70
2022/11/06 06:35:16;;;;;;;0.00;0.00;;;9.50;71.30;;;;;;4960210;29;20042;-70
2022/11/06 06:38:41;;;;;;;0.00;0.00;;;9.80;69.50;;;;;;4959851;29;20039;-70
2022/11/06 06:42:07;;;;;;;0.00;0.00;;;9.90;70.70;;;;;;4959883;28;20102;-70
2022/11/06 06:45:32;;;;;;;0.00;0.00;;;10.10;69.60;;;;;;4960286;29;20042;-70
2022/11/06 06:48:57;;;;;;;0.00;0.00;;;10.10;69.90;;;;;;4959716;29;20027;-70
2022/11/06 06:51:23;;;;;;;1.13;0.30;;;10.10;68.80;;;;;;4959587;29;20039;-70
2022/11/06 06:54:04;;;;;;;0.32;0.17;;;10.20;69.20;;;;;;4959600;29;20034;-70
2022/11/06 06:56:39;;;;;;;0.00;0.00;;;10.20;69.80;;;;;;4959591;29;20057;-70
2022/11/06 07:02:26;;;;;;;0.17;0.10;;;10.40;69.10;;;;;;4959791;29;20038;-70
2022/11/06 07:05:01;;;;;;;0.00;0.00;;;10.50;69.60;;;;;;4959349;29;20023;-70
2022/11/06 07:07:36;;;;;;;0.00;0.00;;;10.60;68.10;;;;;;4959323;29;20036;-70
2022/11/06 07:13:33;;;;;;;0.00;0.00;;;10.80;69.20;;;;;;4959126;28;20038;-70
2022/11/06 07:16:10;;;;;;;0.00;0.00;;;10.90;67.30;;;;;;4959153;29;20430;-70
2022/11/06 07:18:45;;;;;;;0.00;0.00;;;11.00;69.40;;;;;;4959083;29;20419;-70
2022/11/06 07:22:00;;;;;;;0.10;0.00;;;11.10;67.00;;;;;;4959180;28;20158;-70
2022/11/06 07:24:38;;;;;;;0.00;0.00;;;11.10;67.30;;;;;;4958965;29;20032;-70
2022/11/06 07:27:13;;;;;;;0.00;0.00;;;11.20;67.60;;;;;;4959172;29;20035;-70
2022/11/06 07:29:47;;;;;;;0.00;0.00;;;11.20;67.60;;;;;;4958810;28;20031;-70
2022/11/06 07:32:13;;;;;;;0.00;0.00;;;11.20;68.10;;;;;;4958921;29;20087;-70
2022/11/06 07:34:57;;;;;;;0.00;0.00;;;11.30;66.50;;;;;;4959001;29;20324;-70
2022/11/06 07:37:35;;;;;;;0.00;0.00;;;11.30;66.60;;;;;;4958891;29;20027;-70
2022/11/06 07:40:10;;;;;;;0.00;0.00;;;11.40;67.70;;;;;;4958731;28;20070;-70
2022/11/06 07:42:45;;;;;;;0.00;0.00;;;11.50;62.90;;;;;;4958120;28;20518;-70
2022/11/06 07:45:20;;;;;;;0.08;0.08;;;11.60;66.80;;;;;;4958657;29;20031;-70
2022/11/06 07:47:56;;;;;;;0.00;0.00;;;11.70;71.90;;;;;;4958704;29;20051;-70
2022/11/06 07:53:56;;;;;;;0.00;0.00;;;11.70;66.00;;;;;;4958838;29;20038;-70
2022/11/06 07:56:30;;;;;;;0.00;0.00;;;11.70;66.30;;;;;;4958535;29;20079;-70
2022/11/06 08:02:18;;;;;;;0.00;0.00;;;11.60;72.00;;;;;;4958848;29;20038;-70
2022/11/06 08:04:53;;;;;;;0.55;0.10;;;11.70;68.60;;;;;;4958305;29;20031;-70
2022/11/06 08:07:28;;;;;;;0.00;0.00;;;11.70;77.40;;;;;;4958450;29;20158;-70
2022/11/06 08:10:03;;;;;;;0.00;0.00;;;11.80;77.30;;;;;;4958222;28;20051;-70
2022/11/06 08:12:38;;;;;;;0.10;0.10;;;11.70;77.00;;;;;;4958400;29;20032;-70
2022/11/06 08:16:03;;;;;;;0.28;0.20;;;11.70;78.20;;;;;;4957877;28;20063;-70
2022/11/06 08:19:29;;;;;;;0.00;0.00;;;11.70;77.80;;;;;;4941310;29;20035;-70
2022/11/06 08:21:55;;;;;;;0.10;0.10;;;11.60;77.30;;;;;;4958284;29;20305;-70
2022/11/06 08:24:30;;;;;;;0.03;0.03;;;11.60;79.70;;;;;;4958278;29;20031;-70
2022/11/06 08:27:05;;;;;;;0.00;0.00;;;11.60;76.40;;;;;;4958178;29;20031;-70
2022/11/06 08:29:40;;;;;;;0.10;0.10;;;11.70;78.60;;;;;;4957987;28;20089;-70
2022/11/06 08:32:06;;;;;;;0.00;0.00;;;11.80;79.00;;;;;;4958241;29;20027;-70
2022/11/06 08:34:49;;;;;;;0.08;0.08;;;11.90;77.50;;;;;;4958251;29;20423;-70
2022/11/06 08:37:24;;;;;;;0.03;0.03;;;11.90;77.40;;;;;;4958175;29;20167;-70
2022/11/06 08:43:11;;;;;;;0.00;0.00;;;11.90;77.80;;;;;;4958567;29;20372;-70
2022/11/06 08:45:46;;;;;;;0.20;0.20;;;11.90;78.40;;;;;;4958075;29;20024;-70
2022/11/06 08:48:21;;;;;;;0.10;0.10;;;12.10;79.80;;;;;;4958021;29;20111;-70
2022/11/06 08:50:47;;;;;;;0.10;0.10;;;12.30;79.90;;;;;;4957982;28;20086;-70
2022/11/06 08:53:22;;;;;;;0.00;0.00;;;12.50;78.50;;;;;;4941183;28;20360;-70
2022/11/06 08:55:57;;;;;;;0.00;0.00;;;12.70;80.10;;;;;;4944623;29;20023;-70
2022/11/06 08:58:32;;;;;;;0.00;0.00;;;13.00;80.10;;;;;;4961536;29;20028;-70
2022/11/06 09:00:58;;;;;;;0.10;0.10;;;13.40;67.60;;;;;;4961534;28;20034;-70
2022/11/06 09:03:39;;;;;;;0.00;0.00;;;13.80;67.70;;;;;;4944592;29;20327;-70
2022/11/06 09:06:14;;;;;;;0.00;0.00;;;14.40;65.20;;;;;;4961571;29;20030;-68
2022/11/06 09:08:49;;;;;;;0.00;0.00;;;14.60;63.10;;;;;;4944285;29;20035;-68
2022/11/06 09:14:53;;;;;;;0.00;0.00;;;15.10;62.30;;;;;;4961091;28;20102;-70
2022/11/06 09:17:27;;;;;;;0.20;0.10;;;16.20;59.60;;;;;;4961384;29;20070;-70
2022/11/06 09:20:03;;;;;;;0.20;0.10;;;17.00;60.60;;;;;;4961280;28;20031;-70
2022/11/06 09:22:38;;;;;;;0.00;0.00;;;17.70;54.90;;;;;;4944270;29;20027;-68
2022/11/06 09:25:13;;;;;;;0.03;0.03;;;18.30;54.90;;;;;;4960887;29;20386;-68
2022/11/06 09:27:55;;;;;;;0.20;0.10;;;18.70;56.50;;;;;;4980065;28;20033;-68
2022/11/06 09:33:53;;;;;;;0.00;0.00;;;19.50;56.10;;;;;;4960598;29;20090;-68
2022/11/06 09:36:27;;;;;;;0.00;0.00;;;19.60;53.30;;;;;;4961049;29;20159;-69
2022/11/06 09:39:03;;;;;;;1.27;0.10;;;19.70;54.60;;;;;;4960949;28;20031;-69
2022/11/06 09:41:45;;;;;;;0.00;0.00;;;20.10;53.50;;;;;;4960194;29;20087;-69
2022/11/06 09:44:36;;;;;;;0.10;0.10;;;20.40;51.40;;;;;;4960661;29;20027;-69
2022/11/06 09:47:20;;;;;;;0.30;0.20;;;20.40;57.30;;;;;;4960646;29;20023;-69
2022/11/06 09:53:22;;;;;;;0.28;0.10;;;20.30;60.30;;;;;;4960971;29;20033;-69
2022/11/06 09:56:01;;;;;;;0.22;0.10;;;20.40;61.20;;;;;;4960484;29;20439;-69
2022/11/06 09:58:46;;;;;;;0.20;0.10;;;20.60;62.00;;;;;;4960491;29;20023;-69
2022/11/06 10:04:51;;;;;;;0.00;0.00;;;20.90;63.10;;;;;;4960757;28;20042;-69
2022/11/06 10:07:50;;;;;;;0.45;0.10;;;20.80;61.60;;;;;;4960115;29;20019;-69
2022/11/06 10:13:53;;;;;;;0.80;0.38;;;21.00;61.90;;;;;;4960188;28;20042;-69
2022/11/06 10:16:35;;;;;;;0.20;0.17;;;21.30;62.90;;;;;;4924175;29;20035;-69
2022/11/06 10:19:39;;;;;;;0.10;0.10;;;21.00;61.40;;;;;;4941054;29;20079;-69
2022/11/06 10:22:15;;;;;;;0.50;0.40;;;20.60;62.90;;;;;;4941094;29;20035;-68
2022/11/06 10:25:15;;;;;;;0.20;0.20;;;20.70;62.00;;;;;;4940940;29;20062;-69
2022/11/06 10:28:28;;;;;;;0.10;0.10;;;20.50;62.10;;;;;;4940935;29;20471;-69
2022/11/06 10:34:34;;;;;;;0.22;0.13;;;20.60;62.60;;;;;;4882332;29;20040;-69
2022/11/06 10:37:17;;;;;;;0.20;0.20;;;20.50;62.30;;;;;;4882342;29;20070;-69
2022/11/06 10:43:13;;;;;;;0.00;0.00;;;20.60;61.40;;;;;;4882480;29;20040;-69
2022/11/06 10:45:55;;;;;;;0.98;0.10;;;20.40;62.70;;;;;;4882146;29;20116;-69
2022/11/06 10:52:28;;;;;;;0.45;0.22;;;20.80;62.40;;;;;;4882254;29;20164;-69
2022/11/06 10:55:24;;;;;;;0.20;0.17;;;21.00;62.90;;;;;;4881918;29;20041;-69
2022/11/06 10:58:01;;;;;;;0.50;0.30;;;21.10;62.60;;;;;;4881952;29;20073;-69
2022/11/06 11:00:27;;;;;;;0.08;0.08;;;20.80;61.70;;;;;;4881688;29;20072;-69
2022/11/06 11:03:15;;;;;;;0.28;0.20;;;20.80;62.20;;;;;;4881950;29;20037;-69
2022/11/06 11:05:50;;;;;;;0.20;0.15;;;20.80;61.40;;;;;;4866250;29;20029;-69
2022/11/06 11:08:43;;;;;;;0.73;0.45;;;20.60;61.60;;;;;;4940182;29;20042;-69
2022/11/06 11:14:43;;;;;;;0.63;0.32;;;20.50;61.70;;;;;;4945562;28;20346;-69
2022/11/06 11:17:19;;;;;;;0.60;0.30;;;20.70;63.60;;;;;;4941170;29;20090;-69
2022/11/06 11:19:54;;;;;;;0.50;0.13;;;20.80;64.30;;;;;;4959063;28;20031;-69
2022/11/06 11:22:20;;;;;;;0.38;0.30;;;20.80;60.90;;;;;;4959173;29;20043;-69
2022/11/06 11:25:33;;;;;;;1.27;0.50;;;20.40;60.60;;;;;;4959054;29;20027;-69
2022/11/06 11:28:38;;;;;;;0.40;0.30;;;20.10;63.10;;;;;;4958765;29;20426;-69
2022/11/06 11:31:15;;;;;;;0.47;0.30;;;20.40;65.00;;;;;;4933808;29;20059;-69
2022/11/06 11:34:14;;;;;;;1.23;0.20;;;20.10;62.90;;;;;;4958969;29;20031;-69
2022/11/06 11:37:06;;;;;;;0.50;0.22;;;19.90;60.80;;;;;;4958739;29;20042;-69
2022/11/06 11:43:36;;;;;;;0.20;0.20;;;19.80;62.00;;;;;;4959552;29;20359;-69
2022/11/06 11:46:20;;;;;;;0.40;0.20;;;19.70;62.40;;;;;;4899770;29;20115;-68
2022/11/06 11:48:57;;;;;;;0.57;0.35;;;19.30;62.80;;;;;;4899729;29;20067;-68
2022/11/06 11:51:25;;;;;;;0.32;0.20;;;19.30;65.00;;;;;;4899763;29;20029;-68
2022/11/06 11:54:33;;;;;;;0.68;0.40;;;19.00;63.00;;;;;;4899841;29;20032;-69
2022/11/06 11:57:27;;;;;;;0.65;0.30;;;18.80;64.80;;;;;;4862472;29;20042;-69
2022/11/06 12:03:14;;;;;;;0.63;0.20;;;18.80;66.00;;;;;;4862683;29;20089;-68
2022/11/06 12:06:05;;;;;;;0.60;0.30;;;18.50;62.70;;;;;;4862396;29;20172;-69
2022/11/06 12:08:57;;;;;;;0.03;0.03;;;18.30;66.00;;;;;;4898757;29;20128;-69
2022/11/06 12:11:29;;;;;;;0.65;0.35;;;18.30;67.80;;;;;;4899651;29;20032;-69
2022/11/06 12:14:41;;;;;;;0.28;0.17;;;18.00;61.10;;;;;;4899608;29;20339;-68
2022/11/06 12:17:21;;;;;;;0.20;0.20;;;17.70;62.40;;;;;;4899395;29;20052;-68
2022/11/06 12:23:18;;;;;;;0.45;0.32;;;17.50;66.20;;;;;;4958503;29;20324;-68
2022/11/06 12:26:44;;;;;;;0.10;0.10;;;17.40;65.70;;;;;;4941275;29;20039;-68
2022/11/06 12:32:44;;;;;;;0.10;0.10;;;16.90;66.60;;;;;;4962527;29;20034;-68
2022/11/06 12:35:25;;;;;;;0.00;0.00;;;16.70;65.60;;;;;;4962031;29;20059;-68
2022/11/06 12:38:13;;;;;;;0.10;0.10;;;16.50;65.70;;;;;;4944969;29;20035;-69
2022/11/06 12:44:16;;;;;;;0.00;0.00;;;16.30;65.50;;;;;;4962279;29;20033;-68
2022/11/06 12:47:19;;;;;;;0.38;0.28;;;16.00;64.60;;;;;;4961932;29;20027;-68
2022/11/06 12:50:23;;;;;;;0.25;0.10;;;16.00;67.00;;;;;;4961570;28;20035;-68
2022/11/06 12:53:29;;;;;;;0.28;0.28;;;15.90;68.40;;;;;;4961681;29;20071;-68
2022/11/06 12:56:12;;;;;;;0.00;0.00;;;15.80;69.30;;;;;;4961671;29;20046;-68
2022/11/06 12:59:32;;;;;;;0.20;0.10;;;15.70;67.70;;;;;;4944785;29;20094;-68
2022/11/06 13:02:27;;;;;;;0.10;0.10;;;15.70;70.70;;;;;;4902716;29;20044;-68
2022/11/06 13:05:44;;;;;;;0.15;0.10;;;15.60;69.60;;;;;;4887002;29;20033;-68
2022/11/06 13:08:47;;;;;;;0.25;0.20;;;15.50;68.70;;;;;;4887354;29;20044;-68
2022/11/06 13:12:12;;;;;;;0.20;0.20;;;15.40;71.80;;;;;;4902741;29;20040;-68
2022/11/06 13:15:04;;;;;;;0.45;0.20;;;15.40;73.40;;;;;;4901948;29;20576;-68
2022/11/06 13:18:22;;;;;;;0.17;0.17;;;15.30;71.20;;;;;;4902473;29;20096;-68
2022/11/06 13:24:51;;;;;;;0.10;0.10;;;15.00;72.20;;;;;;4902601;29;20044;-68
2022/11/06 13:27:50;;;;;;;0.10;0.10;;;14.80;74.20;;;;;;4902202;29;20089;-68
2022/11/06 13:34:21;;;;;;;0.13;0.10;;;14.60;74.90;;;;;;4902521;29;20032;-68
2022/11/06 13:36:56;;;;;;;0.40;0.17;;;14.50;77.20;;;;;;4950883;29;20050;-68
2022/11/06 13:43:02;;;;;;;0.10;0.10;;;14.50;72.80;;;;;;4961315;29;20041;-68
2022/11/06 13:45:50;;;;;;;0.20;0.20;;;14.40;73.90;;;;;;4960821;29;20163;-68
2022/11/06 13:48:56;;;;;;;0.13;0.13;;;14.40;76.10;;;;;;4960789;29;20028;-68
2022/11/06 13:52:03;;;;;;;0.50;0.30;;;14.30;74.70;;;;;;4960850;29;20035;-68
2022/11/06 13:55:16;;;;;;;0.10;0.10;;;14.30;74.80;;;;;;4943643;29;20031;-68
2022/11/06 13:58:22;;;;;;;0.10;0.10;;;14.20;74.00;;;;;;4960797;29;20031;-68
2022/11/06 14:04:30;;;;;;;0.47;0.20;;;14.10;75.60;;;;;;4960821;29;20030;-68
2022/11/06 14:07:07;;;;;;;0.20;0.13;;;14.10;75.40;;;;;;4943436;29;20031;-68
2022/11/06 14:12:55;;;;;;;0.20;0.10;;;14.00;74.50;;;;;;4960663;29;20110;-68
2022/11/06 14:15:38;;;;;;;0.10;0.10;;;14.00;73.10;;;;;;4959809;28;20130;-68
2022/11/06 14:18:22;;;;;;;0.00;0.00;;;13.90;74.00;;;;;;4960325;29;20117;-68
2022/11/06 14:21:27;;;;;;;0.22;0.08;;;13.80;73.50;;;;;;4960103;28;20495;-68
2022/11/06 14:24:39;;;;;;;0.27;0.10;;;13.80;74.20;;;;;;4943241;29;20063;-68
2022/11/06 14:27:39;;;;;;;0.20;0.20;;;13.70;75.30;;;;;;4960172;29;20102;-68
2022/11/06 14:33:50;;;;;;;0.00;0.00;;;13.60;72.60;;;;;;4960327;29;20042;-68
2022/11/06 14:36:37;;;;;;;0.63;0.10;;;13.50;72.60;;;;;;4959896;29;20023;-68
2022/11/06 14:42:46;;;;;;;0.13;0.08;;;13.50;72.60;;;;;;4960205;29;20324;-68
2022/11/06 14:45:21;;;;;;;0.85;0.85;;;13.40;73.90;;;;;;4959822;29;20408;-68
2022/11/06 14:47:56;;;;;;;0.40;0.23;;;13.40;74.60;;;;;;4959748;29;20038;-68
2022/11/06 14:53:57;;;;;;;0.15;0.10;;;13.30;73.10;;;;;;4959944;29;20115;-68
2022/11/06 14:56:38;;;;;;;0.10;0.10;;;13.30;74.40;;;;;;4959547;29;20146;-68
2022/11/06 15:02:29;;;;;;;0.10;0.10;;;13.10;76.90;;;;;;4959856;29;20034;-68
2022/11/06 15:05:35;;;;;;;0.00;0.00;;;13.00;79.70;;;;;;4959691;29;20035;-68
2022/11/06 15:08:10;;;;;;;0.10;0.10;;;12.90;78.70;;;;;;4959475;29;20034;-68
2022/11/06 15:10:41;;;;;;;0.20;0.20;;;12.90;79.50;;;;;;4959175;28;20055;-68
2022/11/06 15:13:19;;;;;;;0.00;0.00;;;12.70;79.20;;;;;;4959310;29;20027;-68
2022/11/06 15:16:46;;;;;;;0.00;0.00;;;12.70;79.30;;;;;;4958942;28;20062;-68
2022/11/06 15:22:54;;;;;;;0.10;0.10;;;12.50;80.40;;;;;;4959540;29;20041;-68
2022/11/06 15:25:38;;;;;;;0.47;0.20;;;12.30;81.30;;;;;;4959429;29;20031;-68
2022/11/06 15:28:51;;;;;;;0.10;0.10;;;12.20;81.70;;;;;;4958952;29;20034;-68
2022/11/06 15:34:52;;;;;;;0.10;0.10;;;11.90;83.60;;;;;;4900217;29;20059;-69
2022/11/06 15:37:43;;;;;;;0.28;0.13;;;11.80;83.90;;;;;;4900064;29;20071;-70
2022/11/06 15:43:32;;;;;;;0.43;0.20;;;11.50;83.60;;;;;;4900221;29;20031;-70
2022/11/06 15:46:53;;;;;;;0.00;0.00;;;11.40;84.70;;;;;;4899868;29;20033;-70
2022/11/06 15:52:41;;;;;;;0.50;0.17;;;10.90;86.00;;;;;;4903516;29;20115;-70
2022/11/06 15:55:35;;;;;;;0.10;0.10;;;10.60;86.90;;;;;;4958578;29;20027;-70
2022/11/06 15:58:33;;;;;;;0.10;0.10;;;10.40;87.40;;;;;;4958538;29;20019;-70
2022/11/06 16:04:31;;;;;;;0.20;0.20;;;10.10;88.10;;;;;;4958148;28;20046;-70
2022/11/06 16:07:08;;;;;;;5.63;0.28;;;9.90;88.90;;;;;;4958369;29;20020;-70
2022/11/06 16:12:56;;;;;;;0.40;0.28;;;9.80;89.90;;;;;;4958679;29;20065;-70
2022/11/06 16:16:10;;;;;;;0.77;0.35;;;9.70;90.50;;;;;;4940842;28;20059;-70
2022/11/06 16:18:48;;;;;;;0.47;0.25;;;9.60;90.00;;;;;;4958333;29;20094;-70
2022/11/06 16:24:54;;;;;;;0.15;0.13;;;9.50;91.10;;;;;;4958326;29;20050;-70
2022/11/06 16:27:38;;;;;;;0.57;0.40;;;9.60;90.80;;;;;;4958334;29;20027;-70
2022/11/06 16:33:25;;;;;;;0.17;0.17;;;9.70;90.10;;;;;;4958629;29;20062;-70
2022/11/06 16:36:30;;;;;;;0.22;0.20;;;9.70;89.70;;;;;;4957934;29;20055;-70
2022/11/06 16:45:52;;;;;;;0.20;0.20;;;9.60;91.00;;;;;;4899555;29;20442;-70
2022/11/06 16:48:53;;;;;;;1.10;0.30;;;9.60;90.10;;;;;;4899231;29;20341;-70
2022/11/06 16:51:32;;;;;;;0.63;0.43;;;9.60;89.10;;;;;;4899163;29;20111;-70
2022/11/06 16:54:31;;;;;;;0.57;0.38;;;9.80;87.40;;;;;;4899314;29;20361;-70
2022/11/06 16:57:24;;;;;;;0.15;0.15;;;9.90;86.80;;;;;;4956053;29;20039;-70
2022/11/06 17:03:35;;;;;;;1.20;0.60;;;10.10;86.60;;;;;;4958263;29;20034;-70
2022/11/06 17:06:31;;;;;;;0.63;0.30;;;10.20;85.70;;;;;;4957807;29;20035;-70
2022/11/06 17:09:34;;;;;;;0.25;0.25;;;10.20;85.10;;;;;;4957756;28;20074;-70
2022/11/06 17:12:10;;;;;;;2.55;0.63;;;10.30;85.70;;;;;;4957214;29;20035;-70
2022/11/06 17:14:47;;;;;;;0.22;0.20;;;10.40;84.90;;;;;;4958672;28;20019;-70
2022/11/06 17:18:13;;;;;;;0.50;0.35;;;10.40;86.10;;;;;;4960419;28;20098;-70
2022/11/06 17:25:08;;;;;;;0.15;0.15;;;10.00;88.50;;;;;;4961594;29;20078;-70
2022/11/06 17:28:33;;;;;;;0.28;0.20;;;9.90;88.40;;;;;;4961228;29;20086;-70
2022/11/06 17:35:30;;;;;;;0.65;0.63;;;9.70;88.90;;;;;;4961445;29;20471;-70
2022/11/06 17:41:31;;;;;;;0.10;0.10;;;9.40;90.50;;;;;;4960836;29;20037;-70
2022/11/06 17:44:16;;;;;;;0.30;0.28;;;9.20;90.60;;;;;;4961314;29;20044;-70
2022/11/06 17:46:53;;;;;;;2.30;0.38;;;9.20;91.30;;;;;;4960881;29;20458;-70
2022/11/06 17:52:41;;;;;;;0.57;0.40;;;9.00;90.90;;;;;;4960998;29;20086;-70
2022/11/06 17:55:16;;;;;;;0.10;0.10;;;9.00;91.50;;;;;;4943971;29;20023;-70
2022/11/06 17:57:51;;;;;;;0.10;0.10;;;8.90;91.10;;;;;;4960693;29;20043;-70
2022/11/06 18:03:51;;;;;;;0.68;0.30;;;8.90;91.20;;;;;;4960895;29;20082;-70
2022/11/06 18:06:26;;;;;;;0.93;0.40;;;8.90;90.50;;;;;;4943360;29;20085;-70
2022/11/06 18:12:16;;;;;;;0.10;0.10;;;9.00;89.10;;;;;;4960611;29;20081;-70
2022/11/06 18:14:50;;;;;;;0.13;0.13;;;9.30;86.90;;;;;;4960267;29;20035;-70
2022/11/06 18:17:25;;;;;;;0.10;0.10;;;9.50;86.40;;;;;;4942798;29;20047;-70
2022/11/06 18:23:13;;;;;;;0.38;0.22;;;9.80;86.90;;;;;;4960530;28;20986;-70
2022/11/06 18:26:17;;;;;;;0.20;0.20;;;9.70;86.30;;;;;;4942992;28;20035;-70
2022/11/06 18:29:03;;;;;;;0.05;0.05;;;9.70;86.20;;;;;;4951321;29;20058;-70
2022/11/06 18:31:29;;;;;;;0.20;0.10;;;9.70;84.50;;;;;;4959918;29;20106;-70
2022/11/06 18:34:15;;;;;;;0.10;0.10;;;9.80;82.70;;;;;;4960103;29;20066;-70
2022/11/06 18:36:50;;;;;;;0.20;0.20;;;9.90;83.10;;;;;;4960019;29;20442;-70
2022/11/06 18:39:25;;;;;;;0.17;0.17;;;10.00;83.80;;;;;;4959897;28;20118;-70